createdAt,value
2023-01-09T00:01:18.696Z,85.61
2023-01-09T00:03:46.936Z,85.53
2023-01-09T00:06:14.663Z,85.38
2023-01-09T00:08:42.183Z,85.34
2023-01-09T00:11:10.138Z,85.26
2023-01-09T00:13:38.097Z,85.46
2023-01-09T00:16:07.049Z,85.35
2023-01-09T00:18:35.658Z,85.47
2023-01-09T00:21:05.175Z,85.29
2023-01-09T00:23:32.756Z,85.16
2023-01-09T00:26:09.413Z,85.36
2023-01-09T00:28:37.082Z,85.08
2023-01-09T00:31:06.865Z,84.88
2023-01-09T00:33:39.659Z,85.05
2023-01-09T00:36:07.891Z,85.37
2023-01-09T00:38:37.305Z,85.50
2023-01-09T00:41:06.687Z,85.28
2023-01-09T00:43:39.474Z,85.20
2023-01-09T00:46:08.349Z,85.31
2023-01-09T00:48:39.189Z,85.16
2023-01-09T00:51:08.262Z,85.24
2023-01-09T00:53:37.716Z,85.06
2023-01-09T00:56:07.854Z,85.25
2023-01-09T00:58:36.101Z,85.39
2023-01-09T01:01:03.968Z,85.28
2023-01-09T01:03:31.929Z,85.40
2023-01-09T01:06:18.391Z,85.99
2023-01-09T01:08:46.536Z,85.87
2023-01-09T01:11:14.421Z,86.01
2023-01-09T01:13:41.955Z,86.49
2023-01-09T01:16:12.176Z,86.24
2023-01-09T01:18:40.396Z,86.27
2023-01-09T01:21:09.404Z,86.24
2023-01-09T01:23:37.994Z,86.09
2023-01-09T01:26:11.314Z,86.09
2023-01-09T01:28:39.364Z,85.99
2023-01-09T01:31:07.646Z,86.03
2023-01-09T01:33:35.368Z,86.00
2023-01-09T01:36:08.382Z,86.88
2023-01-09T01:38:36.624Z,86.40
2023-01-09T01:41:04.767Z,86.29
2023-01-09T01:43:55.083Z,86.41
2023-01-09T01:46:23.134Z,86.35
2023-01-09T01:48:54.568Z,86.37
2023-01-09T01:51:23.761Z,86.59
2023-01-09T01:53:54.351Z,86.54
2023-01-09T01:56:28.674Z,86.61
2023-01-09T01:59:06.349Z,87.06
2023-01-09T02:01:34.271Z,87.42
2023-01-09T02:04:02.473Z,87.48
2023-01-09T02:06:30.894Z,87.68
2023-01-09T02:08:58.698Z,87.69
2023-01-09T02:11:27.259Z,88.30
2023-01-09T02:13:55.273Z,88.25
2023-01-09T02:16:48.330Z,88.64
2023-01-09T02:19:28.772Z,88.36
2023-01-09T02:22:37.759Z,88.19
2023-01-09T02:25:27.414Z,88.24
2023-01-09T02:28:32.732Z,88.17
2023-01-09T02:31:11.281Z,89.11
2023-01-09T02:34:02.959Z,88.96
2023-01-09T02:36:49.629Z,89.08
2023-01-09T02:39:33.059Z,89.30
2023-01-09T02:42:05.918Z,89.09
2023-01-09T02:44:36.171Z,89.66
2023-01-09T02:47:29.408Z,89.16
2023-01-09T02:50:00.813Z,88.89
2023-01-09T02:52:45.351Z,89.14
2023-01-09T02:55:27.961Z,89.06
2023-01-09T02:58:10.686Z,88.65
2023-01-09T03:01:25.960Z,88.58
2023-01-09T03:04:20.936Z,88.42
2023-01-09T03:07:01.171Z,88.25
2023-01-09T03:09:33.259Z,88.25
2023-01-09T03:12:14.692Z,88.17
2023-01-09T03:14:45.946Z,88.40
2023-01-09T03:17:16.824Z,87.99
2023-01-09T03:19:45.589Z,87.80
2023-01-09T03:22:13.603Z,87.79
2023-01-09T03:24:41.135Z,87.81
2023-01-09T03:27:09.531Z,87.92
2023-01-09T03:29:37.595Z,88.22
2023-01-09T03:32:05.373Z,88.33
2023-01-09T03:34:33.209Z,88.14
2023-01-09T03:37:01.797Z,88.09
2023-01-09T03:39:29.377Z,88.25
2023-01-09T03:41:57.380Z,88.35
2023-01-09T03:44:25.107Z,88.37
2023-01-09T03:46:52.621Z,88.40
2023-01-09T03:49:21.667Z,88.39
2023-01-09T03:51:49.207Z,88.42
2023-01-09T03:54:16.751Z,88.43
2023-01-09T03:56:44.522Z,88.51
2023-01-09T03:59:12.039Z,88.74
2023-01-09T04:01:39.812Z,88.51
2023-01-09T04:04:07.727Z,88.52
2023-01-09T04:06:35.296Z,88.46
2023-01-09T04:09:03.073Z,88.31
2023-01-09T04:11:31.002Z,88.20
2023-01-09T04:13:58.536Z,88.01
2023-01-09T04:16:26.106Z,87.96
2023-01-09T04:18:53.987Z,87.86
2023-01-09T04:21:21.615Z,87.78
2023-01-09T04:23:49.147Z,87.64
2023-01-09T04:26:16.979Z,87.56
2023-01-09T04:28:44.619Z,87.45
2023-01-09T04:31:12.182Z,87.54
2023-01-09T04:33:44.113Z,87.54
2023-01-09T04:36:11.850Z,87.43
2023-01-09T04:38:39.533Z,87.40
2023-01-09T04:41:07.756Z,87.39
2023-01-09T04:43:35.270Z,87.39
2023-01-09T04:46:03.458Z,87.46
2023-01-09T04:48:31.364Z,87.46
2023-01-09T04:50:58.890Z,87.46
2023-01-09T04:53:26.448Z,87.50
2023-01-09T04:55:54.277Z,87.50
2023-01-09T04:58:21.913Z,87.52
2023-01-09T05:00:50.172Z,87.57
2023-01-09T05:03:18.242Z,87.56
2023-01-09T05:05:45.715Z,87.54
2023-01-09T05:08:13.244Z,87.60
2023-01-09T05:10:41.166Z,87.59
2023-01-09T05:13:08.728Z,87.55
2023-01-09T05:15:36.273Z,87.56
2023-01-09T05:18:04.092Z,87.53
2023-01-09T05:20:31.646Z,87.56
2023-01-09T05:22:59.180Z,87.34
2023-01-09T05:25:27.018Z,87.29
2023-01-09T05:27:54.530Z,87.17
2023-01-09T05:30:22.093Z,86.92
2023-01-09T05:32:49.822Z,86.83
2023-01-09T05:35:17.366Z,86.71
2023-01-09T05:37:45.303Z,86.58
2023-01-09T05:40:14.190Z,86.49
2023-01-09T05:42:44.190Z,86.65
2023-01-09T05:45:12.125Z,86.47
2023-01-09T05:47:40.432Z,86.55
2023-01-09T05:50:08.587Z,86.51
2023-01-09T05:52:36.193Z,86.38
2023-01-09T05:55:05.904Z,86.20
2023-01-09T05:57:33.853Z,86.13
2023-01-09T06:00:01.349Z,86.12
2023-01-09T06:02:29.103Z,86.27
2023-01-09T06:04:57.027Z,85.94
2023-01-09T06:07:24.620Z,85.88
2023-01-09T06:09:52.252Z,85.73
2023-01-09T06:12:20.180Z,85.72
2023-01-09T06:14:47.777Z,85.70
2023-01-09T06:17:15.330Z,85.70
2023-01-09T06:19:43.303Z,85.76
2023-01-09T06:22:11.028Z,85.95
2023-01-09T06:24:38.537Z,85.94
2023-01-09T06:27:06.809Z,85.84
2023-01-09T06:29:34.251Z,85.91
2023-01-09T06:32:01.762Z,86.02
2023-01-09T06:34:29.630Z,85.94
2023-01-09T06:36:57.391Z,86.01
2023-01-09T06:39:25.193Z,85.91
2023-01-09T06:41:53.132Z,86.00
2023-01-09T06:44:20.727Z,86.02
2023-01-09T06:46:48.295Z,86.11
2023-01-09T06:49:18.085Z,86.20
2023-01-09T06:51:45.894Z,86.34
2023-01-09T06:54:13.568Z,86.56
2023-01-09T06:56:41.449Z,86.62
2023-01-09T06:59:09.777Z,86.67
2023-01-09T07:01:39.929Z,86.66
2023-01-09T07:04:10.358Z,86.46
2023-01-09T07:06:38.434Z,86.31
2023-01-09T07:09:06.320Z,86.21
2023-01-09T07:11:34.229Z,86.12
2023-01-09T07:14:02.195Z,85.96
2023-01-09T07:16:30.068Z,85.89
2023-01-09T07:18:57.872Z,85.62
2023-01-09T07:21:25.574Z,85.54
2023-01-09T07:23:53.402Z,85.41
2023-01-09T07:26:21.286Z,85.27
2023-01-09T07:28:49.132Z,85.15
2023-01-09T07:31:16.900Z,85.24
2023-01-09T07:33:44.875Z,85.14
2023-01-09T07:36:12.494Z,85.15
2023-01-09T07:38:40.413Z,85.10
2023-01-09T07:41:10.689Z,85.08
2023-01-09T07:43:38.995Z,84.95
2023-01-09T07:46:06.788Z,85.25
2023-01-09T07:48:34.792Z,84.69
2023-01-09T07:51:02.383Z,84.62
2023-01-09T07:53:29.903Z,84.36
2023-01-09T07:55:57.823Z,84.24
2023-01-09T07:58:25.488Z,84.08
2023-01-09T08:00:53.141Z,84.20
2023-01-09T08:03:21.023Z,84.22
2023-01-09T08:05:51.264Z,84.54
2023-01-09T08:08:19.141Z,84.73
2023-01-09T08:10:47.120Z,84.65
2023-01-09T08:13:14.735Z,84.89
2023-01-09T08:15:42.494Z,84.92
2023-01-09T08:18:10.777Z,84.81
2023-01-09T08:20:38.333Z,84.94
2023-01-09T08:23:05.867Z,85.34
2023-01-09T08:25:33.705Z,85.43
2023-01-09T08:28:01.499Z,85.01
2023-01-09T08:30:29.902Z,85.53
2023-01-09T08:32:57.735Z,84.77
2023-01-09T08:35:25.480Z,86.05
2023-01-09T08:37:54.871Z,84.79
2023-01-09T08:40:23.169Z,84.04
2023-01-09T08:43:09.411Z,84.29
2023-01-09T08:45:55.430Z,83.83
2023-01-09T08:48:23.057Z,84.22
2023-01-09T08:50:51.111Z,84.76
2023-01-09T08:53:18.718Z,84.97
2023-01-09T08:55:46.244Z,85.48
2023-01-09T08:58:14.326Z,88.05
2023-01-09T09:00:42.343Z,88.41
2023-01-09T09:03:11.800Z,89.61
2023-01-09T09:05:39.776Z,88.86
2023-01-09T09:08:07.487Z,91.76
2023-01-09T09:10:35.122Z,93.66
2023-01-09T09:13:03.102Z,90.96
2023-01-09T09:15:30.869Z,90.83
2023-01-09T09:18:03.402Z,90.79
2023-01-09T09:20:34.160Z,92.07
2023-01-09T09:23:01.963Z,91.32
2023-01-09T09:25:29.829Z,92.41
2023-01-09T09:27:58.065Z,93.04
2023-01-09T09:30:26.193Z,92.48
2023-01-09T09:32:57.800Z,93.23
2023-01-09T09:35:25.447Z,92.24
2023-01-09T09:37:57.911Z,92.45
2023-01-09T09:41:05.187Z,92.65
2023-01-09T09:43:57.530Z,93.12
2023-01-09T09:46:43.712Z,94.01
2023-01-09T09:49:50.054Z,93.27
2023-01-09T09:52:42.231Z,93.60
2023-01-09T09:55:38.482Z,93.94
2023-01-09T09:58:21.908Z,94.45
2023-01-09T10:00:50.405Z,94.42
2023-01-09T10:03:52.676Z,94.44
2023-01-09T10:06:47.729Z,94.74
2023-01-09T10:09:46.175Z,95.01
2023-01-09T10:12:27.450Z,95.08
2023-01-09T10:14:59.894Z,95.12
2023-01-09T10:17:41.392Z,95.03
2023-01-09T10:20:24.691Z,95.37
2023-01-09T10:23:14.972Z,95.23
2023-01-09T10:25:46.607Z,96.08
2023-01-09T10:28:40.284Z,96.11
2023-01-09T10:31:18.128Z,95.85
2023-01-09T10:34:02.030Z,95.74
2023-01-09T10:36:43.159Z,95.98
2023-01-09T10:39:17.856Z,96.01
2023-01-09T10:42:04.221Z,95.61
2023-01-09T10:44:39.052Z,95.10
2023-01-09T10:47:20.592Z,95.33
2023-01-09T10:49:50.280Z,95.15
2023-01-09T10:52:20.722Z,95.25
2023-01-09T10:55:04.177Z,95.63
2023-01-09T10:57:54.218Z,95.31
2023-01-09T11:00:24.082Z,95.06
2023-01-09T11:02:53.438Z,95.49
2023-01-09T11:05:23.679Z,95.13
2023-01-09T11:07:56.037Z,94.95
2023-01-09T11:10:44.919Z,94.81
2023-01-09T11:13:21.831Z,94.65
2023-01-09T11:16:17.993Z,94.77
2023-01-09T11:18:55.766Z,94.66
2023-01-09T11:21:33.200Z,95.16
2023-01-09T11:24:19.002Z,94.83
2023-01-09T11:27:13.454Z,94.59
2023-01-09T11:29:41.743Z,94.64
2023-01-09T11:32:25.232Z,94.81
2023-01-09T11:35:17.709Z,94.76
2023-01-09T11:37:52.372Z,94.87
2023-01-09T11:40:58.976Z,94.61
2023-01-09T11:43:41.086Z,94.65
2023-01-09T11:46:30.965Z,94.63
2023-01-09T11:49:01.025Z,94.67
2023-01-09T11:51:34.282Z,94.85
2023-01-09T11:54:02.238Z,94.77
2023-01-09T11:56:30.025Z,94.41
2023-01-09T11:58:59.793Z,94.65
2023-01-09T12:01:49.787Z,94.63
2023-01-09T12:04:56.844Z,94.95
2023-01-09T12:07:55.087Z,94.64
2023-01-09T12:10:49.847Z,94.45
2023-01-09T12:13:54.781Z,94.58
2023-01-09T12:17:12.652Z,93.87
2023-01-09T12:20:13.651Z,93.36
2023-01-09T12:23:18.460Z,93.12
2023-01-09T12:26:06.927Z,93.25
2023-01-09T12:28:52.026Z,92.67
2023-01-09T12:31:39.049Z,93.02
2023-01-09T12:34:20.940Z,93.06
2023-01-09T12:37:20.423Z,92.90
2023-01-09T12:40:13.833Z,93.11
2023-01-09T12:42:59.892Z,92.85
2023-01-09T12:45:31.634Z,92.39
2023-01-09T12:48:21.090Z,92.95
2023-01-09T12:51:09.882Z,93.47
2023-01-09T12:53:57.537Z,93.25
2023-01-09T12:56:31.244Z,93.59
2023-01-09T12:59:32.214Z,93.67
2023-01-09T13:02:21.924Z,93.74
2023-01-09T13:04:59.749Z,94.05
2023-01-09T13:07:36.179Z,93.73
2023-01-09T13:10:16.363Z,93.98
2023-01-09T13:12:45.237Z,93.83
2023-01-09T13:15:32.269Z,93.98
2023-01-09T13:18:14.554Z,94.17
2023-01-09T13:20:45.355Z,94.27
2023-01-09T13:23:47.179Z,94.55
2023-01-09T13:26:26.689Z,94.89
2023-01-09T13:29:00.656Z,94.93
2023-01-09T13:31:38.884Z,94.84
2023-01-09T13:34:21.508Z,95.22
2023-01-09T13:36:54.440Z,95.38
2023-01-09T13:39:27.650Z,95.58
2023-01-09T13:42:23.728Z,95.65
2023-01-09T13:44:54.826Z,95.89
2023-01-09T13:47:28.351Z,96.17
2023-01-09T13:50:21.238Z,96.38
2023-01-09T13:52:49.451Z,96.59
2023-01-09T13:55:17.519Z,96.68
2023-01-09T13:58:08.646Z,96.89
2023-01-09T14:00:36.420Z,96.94
2023-01-09T14:03:26.232Z,97.01
2023-01-09T14:05:54.283Z,97.31
2023-01-09T14:08:23.957Z,97.46
2023-01-09T14:11:01.126Z,97.83
2023-01-09T14:13:39.352Z,97.74
2023-01-09T14:16:20.604Z,97.75
2023-01-09T14:19:04.978Z,97.63
2023-01-09T14:21:52.834Z,97.65
2023-01-09T14:24:52.595Z,97.68
2023-01-09T14:28:03.447Z,97.67
2023-01-09T14:30:49.865Z,97.58
2023-01-09T14:33:17.532Z,97.23
2023-01-09T14:35:51.521Z,97.30
2023-01-09T14:38:32.628Z,97.27
2023-01-09T14:41:15.621Z,96.87
2023-01-09T14:43:54.316Z,96.61
2023-01-09T14:46:22.476Z,96.34
2023-01-09T14:49:30.517Z,96.44
2023-01-09T14:52:01.187Z,96.39
2023-01-09T14:54:33.215Z,96.59
2023-01-09T14:57:03.949Z,96.63
2023-01-09T14:59:31.586Z,96.76
2023-01-09T15:01:59.563Z,96.99
2023-01-09T15:04:38.850Z,97.17
2023-01-09T15:07:06.699Z,97.17
2023-01-09T15:09:43.838Z,97.29
2023-01-09T15:12:22.129Z,97.19
2023-01-09T15:14:55.948Z,97.50
2023-01-09T15:17:29.011Z,96.97
2023-01-09T15:19:58.483Z,96.71
2023-01-09T15:22:30.156Z,96.08
2023-01-09T15:24:59.412Z,95.57
2023-01-09T15:27:27.042Z,95.48
2023-01-09T15:29:54.567Z,95.40
2023-01-09T15:32:27.512Z,95.01
2023-01-09T15:34:56.083Z,94.86
2023-01-09T15:37:30.061Z,94.48
2023-01-09T15:39:59.978Z,94.31
2023-01-09T15:42:49.471Z,94.00
2023-01-09T15:45:26.516Z,94.08
2023-01-09T15:47:55.171Z,94.19
2023-01-09T15:50:28.029Z,93.95
2023-01-09T15:52:56.520Z,93.98
2023-01-09T15:55:35.477Z,93.66
2023-01-09T15:58:05.274Z,93.70
2023-01-09T16:00:36.277Z,93.96
2023-01-09T16:03:16.850Z,94.09
2023-01-09T16:05:47.439Z,93.78
2023-01-09T16:08:20.874Z,93.62
2023-01-09T16:10:57.558Z,93.36
2023-01-09T16:13:27.971Z,93.27
2023-01-09T16:15:56.303Z,92.80
2023-01-09T16:18:32.657Z,92.81
2023-01-09T16:21:22.727Z,92.57
2023-01-09T16:23:55.544Z,92.27
2023-01-09T16:26:25.500Z,92.19
2023-01-09T16:28:54.225Z,92.36
2023-01-09T16:31:27.457Z,92.56
2023-01-09T16:34:06.464Z,91.85
2023-01-09T16:36:35.179Z,91.87
2023-01-09T16:39:06.775Z,91.86
2023-01-09T16:42:01.568Z,91.80
2023-01-09T16:44:29.355Z,91.37
2023-01-09T16:46:57.291Z,91.26
2023-01-09T16:49:29.387Z,91.41
2023-01-09T16:51:57.419Z,91.65
2023-01-09T16:54:24.938Z,91.77
2023-01-09T16:56:53.596Z,91.33
2023-01-09T16:59:26.317Z,91.53
2023-01-09T17:01:54.333Z,91.52
2023-01-09T17:04:26.916Z,91.85
2023-01-09T17:06:54.396Z,91.79
2023-01-09T17:09:27.639Z,92.05
2023-01-09T17:11:55.435Z,92.09
2023-01-09T17:14:23.234Z,91.87
2023-01-09T17:16:50.843Z,92.44
2023-01-09T17:19:20.871Z,92.38
2023-01-09T17:21:48.690Z,92.49
2023-01-09T17:24:35.017Z,92.64
2023-01-09T17:27:22.115Z,92.66
2023-01-09T17:29:49.703Z,92.44
2023-01-09T17:32:19.212Z,92.53
2023-01-09T17:34:47.113Z,92.79
2023-01-09T17:37:16.047Z,92.84
2023-01-09T17:39:44.844Z,92.99
2023-01-09T17:42:12.662Z,92.87
2023-01-09T17:44:40.295Z,92.98
2023-01-09T17:47:14.923Z,92.79
2023-01-09T17:49:42.633Z,92.86
2023-01-09T17:52:10.600Z,93.05
2023-01-09T17:54:38.585Z,93.11
2023-01-09T17:57:07.510Z,94.43
2023-01-09T17:59:35.636Z,94.10
2023-01-09T18:02:03.235Z,94.08
2023-01-09T18:04:31.149Z,94.00
2023-01-09T18:06:58.611Z,94.05
2023-01-09T18:09:26.228Z,94.23
2023-01-09T18:11:54.130Z,94.72
2023-01-09T18:14:21.949Z,94.76
2023-01-09T18:16:49.597Z,94.90
2023-01-09T18:19:17.517Z,94.83
2023-01-09T18:21:46.860Z,95.10
2023-01-09T18:24:14.422Z,95.37
2023-01-09T18:26:42.371Z,95.39
2023-01-09T18:29:11.468Z,95.55
2023-01-09T18:31:39.799Z,95.46
2023-01-09T18:34:09.145Z,95.50
2023-01-09T18:36:36.843Z,95.59
2023-01-09T18:39:05.530Z,95.68
2023-01-09T18:41:33.575Z,95.79
2023-01-09T18:44:01.753Z,96.02
2023-01-09T18:46:32.469Z,96.06
2023-01-09T18:49:04.323Z,96.25
2023-01-09T18:51:34.203Z,96.12
2023-01-09T18:54:02.318Z,96.17
2023-01-09T18:56:30.139Z,96.34
2023-01-09T18:58:58.262Z,96.38
2023-01-09T19:01:28.224Z,96.53
2023-01-09T19:03:57.358Z,96.49
2023-01-09T19:06:26.187Z,96.89
2023-01-09T19:08:55.003Z,96.64
2023-01-09T19:11:24.254Z,96.74
2023-01-09T19:13:52.002Z,96.76
2023-01-09T19:16:20.105Z,96.72
2023-01-09T19:18:48.216Z,97.02
2023-01-09T19:21:19.203Z,96.82
2023-01-09T19:23:47.977Z,96.82
2023-01-09T19:26:21.504Z,96.91
2023-01-09T19:28:51.852Z,97.04
2023-01-09T19:31:22.841Z,97.13
2023-01-09T19:33:51.875Z,97.05
2023-01-09T19:36:19.912Z,96.77
2023-01-09T19:38:47.934Z,96.96
2023-01-09T19:41:19.454Z,97.03
2023-01-09T19:43:47.825Z,97.44
2023-01-09T19:46:18.559Z,97.36
2023-01-09T19:48:47.490Z,97.58
2023-01-09T19:51:17.996Z,97.47
2023-01-09T19:53:51.373Z,97.67
2023-01-09T19:56:22.201Z,97.86
2023-01-09T19:59:03.852Z,97.93
2023-01-09T20:01:35.254Z,98.06
2023-01-09T20:04:07.846Z,98.48
2023-01-09T20:06:36.138Z,98.42
2023-01-09T20:09:05.160Z,98.63
2023-01-09T20:11:33.801Z,98.50
2023-01-09T20:14:01.416Z,98.50
2023-01-09T20:16:30.636Z,98.53
2023-01-09T20:19:00.439Z,98.42
2023-01-09T20:21:29.192Z,98.56
2023-01-09T20:23:59.689Z,98.81
2023-01-09T20:26:28.725Z,98.75
2023-01-09T20:28:57.213Z,98.73
2023-01-09T20:31:28.184Z,98.80
2023-01-09T20:33:55.952Z,99.06
2023-01-09T20:36:27.977Z,99.11
2023-01-09T20:39:01.268Z,99.33
2023-01-09T20:41:31.414Z,99.44
2023-01-09T20:44:07.000Z,99.47
2023-01-09T20:46:38.189Z,99.65
2023-01-09T20:49:07.623Z,99.75
2023-01-09T20:51:36.101Z,99.99
2023-01-09T20:54:04.143Z,100.00
2023-01-09T20:56:32.236Z,100.00
2023-01-09T20:59:00.290Z,100.00
2023-01-09T21:01:28.548Z,100.00
2023-01-09T21:03:58.063Z,100.00
2023-01-09T21:06:26.246Z,100.00
2023-01-09T21:08:53.999Z,100.00
2023-01-09T21:11:22.211Z,100.00
2023-01-09T21:13:50.063Z,100.00
2023-01-09T21:16:21.496Z,100.00
2023-01-09T21:18:49.937Z,100.00
2023-01-09T21:21:23.391Z,100.00
2023-01-09T21:23:53.812Z,100.00
2023-01-09T21:26:24.858Z,100.00
2023-01-09T21:28:55.080Z,100.00
2023-01-09T21:31:33.105Z,100.00
2023-01-09T21:34:03.766Z,100.00
2023-01-09T21:36:31.691Z,100.00
2023-01-09T21:39:01.162Z,100.00
2023-01-09T21:41:49.205Z,100.00
2023-01-09T21:44:35.040Z,100.00
2023-01-09T21:47:03.274Z,100.00
2023-01-09T21:49:34.999Z,100.00
2023-01-09T21:52:06.019Z,100.00
2023-01-09T21:54:34.133Z,100.00
2023-01-09T21:57:02.102Z,100.00
2023-01-09T21:59:33.355Z,100.00
2023-01-09T22:02:00.878Z,100.00
2023-01-09T22:04:29.244Z,100.00
2023-01-09T22:06:57.109Z,100.00
2023-01-09T22:09:24.814Z,100.00
2023-01-09T22:11:52.735Z,100.00
2023-01-09T22:14:20.602Z,100.00
2023-01-09T22:16:48.475Z,100.00
2023-01-09T22:19:19.828Z,100.00
2023-01-09T22:21:47.897Z,100.00
2023-01-09T22:24:17.631Z,100.00
2023-01-09T22:26:45.614Z,100.00
2023-01-09T22:29:13.716Z,100.00
2023-01-09T22:31:43.094Z,100.00
2023-01-09T22:34:14.844Z,100.00
2023-01-09T22:36:43.903Z,100.00
2023-01-09T22:39:13.482Z,100.00
2023-01-09T22:41:41.625Z,100.00
2023-01-09T22:44:10.820Z,100.00
2023-01-09T22:46:39.239Z,100.00
2023-01-09T22:49:06.745Z,100.00
2023-01-09T22:51:34.794Z,100.00
2023-01-09T22:54:02.588Z,100.00
2023-01-09T22:56:32.217Z,100.00
2023-01-09T22:59:01.133Z,100.00
2023-01-09T23:01:29.349Z,100.00
2023-01-09T23:03:56.959Z,100.00
2023-01-09T23:06:25.410Z,100.00
2023-01-09T23:08:53.287Z,100.00
2023-01-09T23:11:44.591Z,100.00
2023-01-09T23:14:13.013Z,100.00
2023-01-09T23:16:40.607Z,100.00
2023-01-09T23:19:17.395Z,100.00
2023-01-09T23:21:45.455Z,100.00
2023-01-09T23:24:15.563Z,100.00
2023-01-09T23:26:44.145Z,100.00
2023-01-09T23:29:12.778Z,100.00
2023-01-09T23:31:40.540Z,100.00
2023-01-09T23:34:08.456Z,100.00
2023-01-09T23:36:36.418Z,100.00
2023-01-09T23:39:08.825Z,100.00
2023-01-09T23:41:55.974Z,100.00
2023-01-09T23:44:23.540Z,100.00
2023-01-09T23:46:51.496Z,100.00
2023-01-09T23:49:19.366Z,100.00
2023-01-09T23:51:47.227Z,100.00
2023-01-09T23:54:16.311Z,100.00
2023-01-09T23:56:43.860Z,100.00
2023-01-09T23:59:12.887Z,100.00
